createdAt,value
2022-08-11T00:01:54.654Z,17.01
2022-08-11T00:04:25.570Z,16.92
2022-08-11T00:06:54.888Z,16.86
2022-08-11T00:09:32.267Z,16.83
2022-08-11T00:12:13.656Z,16.72
2022-08-11T00:14:40.901Z,16.70
2022-08-11T00:17:09.879Z,16.60
2022-08-11T00:20:14.102Z,16.56
2022-08-11T00:22:33.811Z,16.57
2022-08-11T00:25:10.012Z,16.60
2022-08-11T00:27:38.510Z,16.65
2022-08-11T00:30:07.148Z,16.73
2022-08-11T00:32:34.609Z,16.64
2022-08-11T00:35:55.089Z,16.57
2022-08-11T00:37:49.886Z,16.55
2022-08-11T00:40:43.206Z,16.54
2022-08-11T00:43:37.886Z,16.51
2022-08-11T00:46:28.395Z,16.55
2022-08-11T00:49:07.141Z,16.73
2022-08-11T00:51:59.678Z,17.00
2022-08-11T00:55:02.011Z,17.14
2022-08-11T00:57:46.564Z,17.14
2022-08-11T01:00:15.300Z,17.20
2022-08-11T01:03:10.995Z,17.23
2022-08-11T01:05:51.536Z,17.25
2022-08-11T01:08:34.621Z,17.13
2022-08-11T01:11:20.766Z,17.02
2022-08-11T01:14:12.200Z,16.94
2022-08-11T01:17:10.850Z,16.88
2022-08-11T01:20:46.666Z,16.88
2022-08-11T01:23:17.515Z,16.86
2022-08-11T01:26:18.180Z,16.83
2022-08-11T01:29:15.423Z,16.78
2022-08-11T01:31:44.936Z,16.76
2022-08-11T01:34:26.565Z,16.75
2022-08-11T01:37:18.327Z,16.65
2022-08-11T01:40:11.919Z,16.60
2022-08-11T01:43:16.817Z,16.51
2022-08-11T01:46:00.659Z,16.42
2022-08-11T01:48:48.937Z,16.41
2022-08-11T01:51:23.887Z,16.35
2022-08-11T01:54:11.949Z,16.28
2022-08-11T01:56:58.841Z,16.29
2022-08-11T01:59:29.688Z,16.38
2022-08-11T02:02:21.423Z,16.52
2022-08-11T02:04:48.117Z,16.33
2022-08-11T02:07:31.387Z,16.27
2022-08-11T02:10:36.578Z,16.18
2022-08-11T02:13:35.720Z,16.10
2022-08-11T02:16:27.221Z,16.16
2022-08-11T02:19:45.320Z,16.35
2022-08-11T02:22:53.394Z,16.19
2022-08-11T02:25:39.080Z,16.01
2022-08-11T02:28:40.118Z,15.80
2022-08-11T02:32:24.114Z,15.75
2022-08-11T02:34:39.275Z,15.67
2022-08-11T02:37:24.398Z,15.67
2022-08-11T02:40:10.722Z,15.73
2022-08-11T02:42:46.195Z,15.62
2022-08-11T02:45:28.895Z,15.56
2022-08-11T02:48:33.008Z,15.52
2022-08-11T02:51:12.732Z,15.49
2022-08-11T02:54:08.095Z,15.52
2022-08-11T02:56:47.230Z,15.48
2022-08-11T02:59:43.693Z,15.44
2022-08-11T03:02:33.074Z,15.52
2022-08-11T03:04:59.815Z,15.53
2022-08-11T03:08:04.193Z,15.48
2022-08-11T03:11:11.676Z,15.43
2022-08-11T03:14:11.982Z,15.36
2022-08-11T03:16:48.873Z,15.35
2022-08-11T03:19:18.574Z,15.42
2022-08-11T03:22:02.409Z,15.44
2022-08-11T03:24:53.912Z,15.45
2022-08-11T03:27:53.822Z,15.40
2022-08-11T03:30:35.321Z,15.43
2022-08-11T03:33:47.138Z,15.33
2022-08-11T03:37:16.731Z,15.34
2022-08-11T03:39:38.900Z,15.37
2022-08-11T03:42:43.847Z,15.41
2022-08-11T03:45:28.735Z,15.46
2022-08-11T03:48:19.959Z,15.51
2022-08-11T03:51:20.596Z,15.55
2022-08-11T03:54:06.609Z,15.55
2022-08-11T03:56:48.918Z,15.60
2022-08-11T03:59:56.499Z,15.69
2022-08-11T04:02:46.572Z,15.71
2022-08-11T04:05:31.258Z,15.65
2022-08-11T04:08:19.705Z,15.59
2022-08-11T04:10:46.360Z,15.56
2022-08-11T04:14:25.814Z,15.42
2022-08-11T04:17:34.714Z,15.32
2022-08-11T04:20:20.039Z,15.30
2022-08-11T04:23:07.878Z,15.25
2022-08-11T04:25:58.539Z,15.17
2022-08-11T04:28:50.215Z,15.12
2022-08-11T04:31:51.320Z,15.15
2022-08-11T04:34:24.794Z,15.27
2022-08-11T04:37:19.364Z,15.35
2022-08-11T04:40:23.543Z,15.42
2022-08-11T04:43:20.919Z,15.53
2022-08-11T04:46:10.732Z,15.67
2022-08-11T04:49:26.279Z,15.62
2022-08-11T04:52:37.590Z,15.62
2022-08-11T04:55:49.179Z,15.73
2022-08-11T04:58:43.600Z,15.77
2022-08-11T05:01:41.254Z,15.88
2022-08-11T05:04:45.298Z,15.96
2022-08-11T05:07:49.622Z,16.13
2022-08-11T05:10:26.022Z,16.17
2022-08-11T05:12:57.330Z,16.18
2022-08-11T05:16:12.136Z,16.19
2022-08-11T05:19:09.125Z,16.27
2022-08-11T05:21:55.327Z,16.38
2022-08-11T05:24:51.781Z,16.37
2022-08-11T05:27:38.492Z,16.42
2022-08-11T05:30:28.340Z,16.63
2022-08-11T05:33:31.476Z,16.79
2022-08-11T05:36:21.628Z,16.88
2022-08-11T05:39:16.311Z,16.96
2022-08-11T05:42:01.495Z,17.03
2022-08-11T05:44:47.594Z,17.16
2022-08-11T05:47:45.897Z,17.35
2022-08-11T05:50:33.349Z,17.55
2022-08-11T05:53:20.415Z,17.70
2022-08-11T05:56:06.169Z,17.88
2022-08-11T05:58:42.315Z,17.95
2022-08-11T06:01:11.167Z,17.98
2022-08-11T06:03:58.783Z,17.96
2022-08-11T06:06:26.444Z,17.96
2022-08-11T06:08:56.451Z,18.06
2022-08-11T06:11:43.870Z,18.08
2022-08-11T06:14:11.534Z,18.23
2022-08-11T06:16:38.295Z,18.31
2022-08-11T06:19:05.642Z,18.46
2022-08-11T06:21:34.704Z,18.56
2022-08-11T06:24:04.128Z,18.61
2022-08-11T06:26:31.465Z,18.75
2022-08-11T06:28:59.574Z,18.87
2022-08-11T06:31:26.327Z,18.92
2022-08-11T06:34:07.707Z,18.97
2022-08-11T06:36:50.963Z,19.19
2022-08-11T06:39:27.827Z,19.45
2022-08-11T06:42:07.293Z,19.50
2022-08-11T06:44:43.688Z,19.51
2022-08-11T06:47:12.281Z,19.64
2022-08-11T06:50:05.018Z,19.68
2022-08-11T06:52:35.805Z,19.81
2022-08-11T06:55:55.508Z,19.76
2022-08-11T06:58:17.348Z,19.90
2022-08-11T07:00:45.379Z,19.99
2022-08-11T07:03:13.753Z,20.20
2022-08-11T07:05:53.930Z,20.33
2022-08-11T07:08:54.427Z,20.46
2022-08-11T07:12:05.822Z,20.66
2022-08-11T07:14:51.430Z,20.71
2022-08-11T07:17:21.588Z,20.81
2022-08-11T07:20:12.036Z,20.91
2022-08-11T07:22:57.673Z,20.86
2022-08-11T07:25:43.433Z,20.96
2022-08-11T07:28:31.456Z,21.05
2022-08-11T07:31:01.748Z,21.12
2022-08-11T07:34:07.267Z,21.38
2022-08-11T07:36:29.964Z,21.48
2022-08-11T07:38:57.688Z,21.57
2022-08-11T07:41:25.268Z,21.57
2022-08-11T07:43:54.104Z,21.37
2022-08-11T07:46:39.842Z,21.67
2022-08-11T07:49:27.547Z,21.67
2022-08-11T07:52:13.381Z,21.36
2022-08-11T07:54:40.661Z,21.56
2022-08-11T07:57:58.494Z,22.05
2022-08-11T08:00:35.910Z,22.53
2022-08-11T08:03:25.240Z,22.99
2022-08-11T08:06:28.453Z,23.34
2022-08-11T08:09:16.268Z,23.61
2022-08-11T08:12:02.873Z,23.78
2022-08-11T08:14:49.666Z,23.86
2022-08-11T08:17:34.858Z,23.82
2022-08-11T08:20:11.153Z,24.14
2022-08-11T08:22:40.069Z,24.33
2022-08-11T08:25:08.557Z,24.60
2022-08-11T08:27:35.818Z,24.52
2022-08-11T08:30:23.698Z,24.70
2022-08-11T08:32:51.683Z,25.06
2022-08-11T08:35:19.247Z,25.04
2022-08-11T08:37:47.691Z,25.14
2022-08-11T08:40:14.870Z,25.10
2022-08-11T08:42:51.575Z,25.14
2022-08-11T08:45:18.640Z,25.41
2022-08-11T08:48:00.292Z,25.61
2022-08-11T08:50:49.312Z,25.60
2022-08-11T08:53:31.912Z,25.68
2022-08-11T08:56:00.292Z,25.68
2022-08-11T08:58:27.166Z,25.80
2022-08-11T09:00:55.017Z,25.71
2022-08-11T09:04:02.797Z,26.08
2022-08-11T09:06:09.659Z,26.20
2022-08-11T09:08:36.577Z,26.14
2022-08-11T09:11:23.090Z,26.11
2022-08-11T09:14:04.719Z,26.28
2022-08-11T09:16:34.248Z,26.55
2022-08-11T09:19:01.396Z,26.62
2022-08-11T09:21:47.997Z,26.49
2022-08-11T09:24:34.258Z,26.40
2022-08-11T09:27:06.032Z,26.65
2022-08-11T09:29:33.134Z,26.26
2022-08-11T09:32:00.122Z,26.73
2022-08-11T09:34:27.694Z,27.11
2022-08-11T09:37:54.152Z,27.22
2022-08-11T09:40:29.201Z,27.16
2022-08-11T09:43:20.499Z,27.54
2022-08-11T09:45:52.043Z,27.35
2022-08-11T09:48:20.797Z,27.30
2022-08-11T09:50:55.268Z,27.22
2022-08-11T09:53:36.827Z,27.20
2022-08-11T09:56:26.504Z,27.04
2022-08-11T09:58:57.156Z,27.28
2022-08-11T10:01:31.369Z,27.18
2022-08-11T10:04:19.644Z,27.07
2022-08-11T10:07:01.867Z,27.36
2022-08-11T10:09:49.515Z,27.03
2022-08-11T10:12:28.532Z,26.72
2022-08-11T10:15:17.221Z,26.85
2022-08-11T10:18:05.945Z,27.15
2022-08-11T10:20:35.173Z,26.91
2022-08-11T10:23:21.576Z,26.98
2022-08-11T10:26:06.923Z,26.83
2022-08-11T10:28:49.977Z,26.74
2022-08-11T10:31:45.183Z,26.55
2022-08-11T10:34:25.578Z,26.68
2022-08-11T10:36:55.353Z,26.80
2022-08-11T10:39:22.216Z,26.50
2022-08-11T10:42:12.237Z,26.73
2022-08-11T10:44:47.702Z,26.50
2022-08-11T10:47:34.351Z,26.63
2022-08-11T10:50:21.863Z,26.89
2022-08-11T10:53:08.662Z,26.80
2022-08-11T10:55:58.571Z,26.71
2022-08-11T10:58:44.832Z,26.86
2022-08-11T11:01:11.764Z,26.78
2022-08-11T11:03:38.697Z,26.85
2022-08-11T11:06:28.388Z,26.74
2022-08-11T11:09:04.212Z,26.80
2022-08-11T11:11:55.035Z,26.78
2022-08-11T11:14:46.058Z,26.84
2022-08-11T11:17:53.449Z,26.45
2022-08-11T11:20:36.765Z,26.21
2022-08-11T11:23:29.552Z,26.15
2022-08-11T11:26:11.768Z,26.51
2022-08-11T11:29:08.369Z,26.75
2022-08-11T11:31:59.705Z,26.79
2022-08-11T11:34:53.126Z,26.61
2022-08-11T11:37:22.603Z,26.47
2022-08-11T11:39:49.693Z,26.79
2022-08-11T11:42:17.268Z,27.06
2022-08-11T11:44:44.991Z,27.05
2022-08-11T11:47:12.870Z,26.80
2022-08-11T11:49:43.778Z,27.20
2022-08-11T11:52:15.215Z,27.35
2022-08-11T11:54:42.291Z,27.36
2022-08-11T11:57:27.863Z,27.41
2022-08-11T12:00:13.423Z,26.97
2022-08-11T12:02:40.783Z,27.25
2022-08-11T12:05:08.965Z,27.12
2022-08-11T12:07:58.719Z,27.25
2022-08-11T12:10:41.235Z,27.24
2022-08-11T12:13:26.560Z,27.22
2022-08-11T12:16:32.122Z,27.04
2022-08-11T12:18:41.437Z,27.03
2022-08-11T12:21:08.890Z,26.83
2022-08-11T12:23:55.069Z,27.08
2022-08-11T12:26:41.057Z,27.36
2022-08-11T12:29:10.225Z,27.34
2022-08-11T12:31:39.010Z,27.29
2022-08-11T12:34:13.052Z,26.95
2022-08-11T12:37:05.601Z,27.00
2022-08-11T12:40:16.784Z,27.02
2022-08-11T12:43:03.880Z,26.80
2022-08-11T12:45:31.571Z,26.89
2022-08-11T12:48:58.701Z,27.14
2022-08-11T12:52:13.814Z,27.08
2022-08-11T12:54:37.372Z,27.04
2022-08-11T12:57:36.473Z,27.00
2022-08-11T13:00:24.974Z,26.92
2022-08-11T13:03:10.612Z,26.64
2022-08-11T13:05:44.808Z,26.58
2022-08-11T13:08:15.110Z,26.65
2022-08-11T13:11:02.956Z,26.60
2022-08-11T13:13:52.587Z,26.82
2022-08-11T13:16:17.957Z,26.61
2022-08-11T13:18:53.745Z,26.60
2022-08-11T13:21:21.440Z,26.90
2022-08-11T13:24:01.233Z,26.86
2022-08-11T13:26:47.119Z,26.98
2022-08-11T13:29:23.055Z,27.26
2022-08-11T13:31:50.701Z,27.04
2022-08-11T13:34:18.465Z,26.90
2022-08-11T13:36:49.297Z,27.07
2022-08-11T13:39:16.530Z,27.17
2022-08-11T13:41:44.185Z,27.23
2022-08-11T13:44:15.873Z,27.02
2022-08-11T13:46:46.326Z,27.39
2022-08-11T13:49:16.912Z,27.65
2022-08-11T13:51:44.872Z,27.80
2022-08-11T13:54:20.230Z,27.93
2022-08-11T13:56:53.595Z,27.61
2022-08-11T13:59:24.059Z,27.49
2022-08-11T14:02:20.368Z,27.62
2022-08-11T14:04:59.034Z,27.67
2022-08-11T14:07:35.917Z,27.70
2022-08-11T14:10:03.944Z,27.44
2022-08-11T14:12:51.117Z,27.51
2022-08-11T14:15:38.501Z,27.75
2022-08-11T14:18:13.976Z,27.81
2022-08-11T14:21:01.241Z,27.86
2022-08-11T14:23:31.302Z,27.60
2022-08-11T14:26:17.465Z,27.65
2022-08-11T14:28:45.322Z,27.87
2022-08-11T14:31:16.306Z,27.78
2022-08-11T14:34:01.073Z,27.44
2022-08-11T14:36:35.058Z,27.50
2022-08-11T14:39:17.120Z,27.45
2022-08-11T14:42:10.067Z,27.43
2022-08-11T14:44:59.870Z,27.50
2022-08-11T14:47:27.940Z,27.75
2022-08-11T14:49:58.665Z,27.89
2022-08-11T14:52:38.416Z,27.85
2022-08-11T14:55:24.308Z,27.83
2022-08-11T14:57:55.615Z,27.75
2022-08-11T15:00:22.886Z,28.18
2022-08-11T15:03:08.692Z,28.13
2022-08-11T15:05:36.532Z,28.30
2022-08-11T15:08:04.787Z,27.99
2022-08-11T15:10:31.503Z,28.20
2022-08-11T15:12:58.153Z,28.23
2022-08-11T15:15:43.904Z,28.44
2022-08-11T15:18:16.193Z,28.34
2022-08-11T15:21:02.526Z,28.41
2022-08-11T15:23:48.775Z,28.36
2022-08-11T15:26:53.036Z,28.63
2022-08-11T15:29:41.233Z,28.81
2022-08-11T15:32:22.196Z,28.79
2022-08-11T15:35:17.445Z,28.63
2022-08-11T15:37:45.371Z,28.68
2022-08-11T15:40:46.471Z,28.54
2022-08-11T15:43:42.388Z,28.69
2022-08-11T15:46:18.515Z,28.55
2022-08-11T15:48:48.520Z,28.76
2022-08-11T15:51:33.447Z,28.54
2022-08-11T15:54:08.963Z,28.77
2022-08-11T15:56:41.612Z,28.72
2022-08-11T15:59:41.930Z,28.59
2022-08-11T16:02:32.309Z,28.52
2022-08-11T16:04:59.917Z,28.40
2022-08-11T16:07:28.508Z,28.53
2022-08-11T16:10:07.534Z,28.40
2022-08-11T16:12:41.090Z,28.26
2022-08-11T16:15:28.360Z,28.22
2022-08-11T16:18:02.368Z,28.20
2022-08-11T16:20:30.787Z,28.00
2022-08-11T16:23:01.766Z,27.90
2022-08-11T16:27:02.995Z,27.75
2022-08-11T16:28:20.746Z,27.88
2022-08-11T16:30:48.284Z,28.60
2022-08-11T16:33:48.703Z,29.72
2022-08-11T16:36:22.949Z,31.09
2022-08-11T16:38:49.721Z,31.14
2022-08-11T16:41:41.728Z,30.92
2022-08-11T16:44:32.513Z,29.48
2022-08-11T16:47:06.679Z,28.41
2022-08-11T16:49:36.160Z,27.78
2022-08-11T16:52:05.368Z,27.38
2022-08-11T16:54:36.927Z,27.15
2022-08-11T16:57:25.624Z,26.95
2022-08-11T16:59:57.947Z,26.95
2022-08-11T17:02:44.440Z,26.78
2022-08-11T17:05:33.408Z,26.67
2022-08-11T17:08:24.493Z,26.64
2022-08-11T17:11:15.959Z,26.52
2022-08-11T17:14:07.711Z,26.38
2022-08-11T17:16:41.378Z,26.22
2022-08-11T17:19:14.416Z,26.19
2022-08-11T17:22:03.445Z,26.22
2022-08-11T17:24:31.626Z,26.11
2022-08-11T17:26:59.405Z,26.00
2022-08-11T17:29:30.498Z,25.91
2022-08-11T17:32:16.040Z,25.75
2022-08-11T17:35:02.709Z,25.69
2022-08-11T17:37:33.097Z,25.56
2022-08-11T17:40:02.415Z,25.51
2022-08-11T17:42:48.816Z,25.31
2022-08-11T17:45:36.695Z,25.24
2022-08-11T17:48:23.488Z,25.29
2022-08-11T17:50:51.493Z,25.08
2022-08-11T17:53:38.158Z,24.85
2022-08-11T17:56:23.963Z,24.89
2022-08-11T17:59:11.355Z,24.98
2022-08-11T18:01:39.294Z,24.85
2022-08-11T18:04:10.378Z,24.83
2022-08-11T18:06:37.925Z,24.88
2022-08-11T18:09:35.811Z,24.91
2022-08-11T18:12:23.446Z,24.69
2022-08-11T18:15:10.479Z,24.49
2022-08-11T18:17:56.248Z,24.20
2022-08-11T18:20:42.363Z,24.05
2022-08-11T18:23:46.105Z,23.85
2022-08-11T18:26:34.821Z,23.87
2022-08-11T18:29:20.605Z,23.85
2022-08-11T18:32:07.374Z,23.75
2022-08-11T18:34:56.746Z,23.71
2022-08-11T18:37:46.309Z,23.54
2022-08-11T18:40:41.186Z,23.57
2022-08-11T18:43:29.764Z,23.45
2022-08-11T18:46:21.188Z,23.29
2022-08-11T18:49:15.678Z,23.13
2022-08-11T18:52:05.518Z,23.00
2022-08-11T18:54:53.321Z,22.73
2022-08-11T18:57:49.931Z,22.65
2022-08-11T19:00:41.243Z,22.58
2022-08-11T19:03:30.087Z,22.48
2022-08-11T19:06:38.931Z,22.05
2022-08-11T19:09:27.760Z,22.02
2022-08-11T19:12:15.108Z,21.79
2022-08-11T19:15:00.957Z,21.68
2022-08-11T19:17:49.011Z,21.58
2022-08-11T19:20:40.186Z,21.43
2022-08-11T19:23:35.085Z,21.41
2022-08-11T19:26:22.681Z,21.40
2022-08-11T19:29:09.168Z,21.26
2022-08-11T19:32:18.623Z,21.24
2022-08-11T19:35:07.319Z,21.32
2022-08-11T19:37:53.644Z,21.30
2022-08-11T19:40:39.889Z,21.38
2022-08-11T19:43:26.460Z,21.31
2022-08-11T19:46:21.767Z,21.25
2022-08-11T19:49:10.212Z,21.44
2022-08-11T19:51:56.316Z,21.40
2022-08-11T19:54:46.946Z,21.36
2022-08-11T19:57:38.705Z,21.20
2022-08-11T20:00:35.899Z,21.17
2022-08-11T20:03:24.993Z,21.28
2022-08-11T20:06:10.685Z,21.11
2022-08-11T20:08:59.384Z,21.05
2022-08-11T20:11:49.101Z,20.81
2022-08-11T20:14:35.508Z,20.47
2022-08-11T20:17:22.317Z,20.22
2022-08-11T20:20:08.023Z,20.04
2022-08-11T20:22:55.854Z,19.95
2022-08-11T20:25:43.031Z,19.79
2022-08-11T20:28:29.846Z,19.67
2022-08-11T20:31:15.711Z,19.64
2022-08-11T20:34:01.504Z,19.51
2022-08-11T20:36:54.051Z,19.39
2022-08-11T20:39:40.992Z,19.42
2022-08-11T20:42:30.253Z,19.50
2022-08-11T20:45:17.072Z,19.59
2022-08-11T20:48:08.947Z,19.55
2022-08-11T20:51:01.341Z,19.51
2022-08-11T20:53:57.590Z,19.38
2022-08-11T20:56:46.731Z,19.28
2022-08-11T20:59:38.316Z,19.26
2022-08-11T21:02:30.074Z,19.34
2022-08-11T21:05:15.809Z,19.63
2022-08-11T21:08:08.795Z,19.93
2022-08-11T21:10:59.372Z,20.29
2022-08-11T21:13:48.007Z,20.33
2022-08-11T21:16:42.839Z,20.34
2022-08-11T21:20:06.615Z,20.39
2022-08-11T21:23:24.288Z,20.44
2022-08-11T21:26:14.548Z,20.52
2022-08-11T21:29:01.172Z,20.30
2022-08-11T21:31:49.372Z,20.03
2022-08-11T21:34:38.106Z,19.79
2022-08-11T21:37:23.496Z,19.71
2022-08-11T21:40:13.558Z,19.57
2022-08-11T21:43:02.645Z,19.48
2022-08-11T21:45:48.934Z,19.59
2022-08-11T21:48:34.661Z,19.68
2022-08-11T21:51:19.829Z,19.64
2022-08-11T21:54:05.576Z,19.57
2022-08-11T21:56:51.850Z,19.49
2022-08-11T21:59:46.900Z,19.36
2022-08-11T22:02:32.444Z,19.31
2022-08-11T22:05:17.707Z,19.22
2022-08-11T22:08:02.926Z,19.13
2022-08-11T22:10:48.369Z,19.13
2022-08-11T22:13:33.579Z,19.13
2022-08-11T22:16:18.818Z,19.06
2022-08-11T22:19:05.733Z,19.02
2022-08-11T22:22:02.692Z,18.96
2022-08-11T22:25:02.037Z,18.91
2022-08-11T22:28:06.482Z,18.85
2022-08-11T22:30:51.677Z,18.80
2022-08-11T22:33:41.429Z,18.79
2022-08-11T22:36:43.911Z,18.80
2022-08-11T22:39:30.333Z,18.81
2022-08-11T22:42:33.586Z,18.77
2022-08-11T22:45:19.764Z,18.70
2022-08-11T22:48:06.335Z,18.64
2022-08-11T22:50:52.439Z,18.56
2022-08-11T22:53:57.557Z,18.43
2022-08-11T22:56:43.891Z,18.48
2022-08-11T22:59:29.149Z,18.45
2022-08-11T23:02:14.658Z,18.53
2022-08-11T23:04:59.832Z,18.42
2022-08-11T23:07:49.817Z,18.47
2022-08-11T23:10:38.693Z,18.37
2022-08-11T23:13:25.002Z,18.21
2022-08-11T23:16:11.569Z,18.16
2022-08-11T23:18:57.487Z,18.23
2022-08-11T23:21:46.536Z,18.13
2022-08-11T23:24:31.804Z,18.13
2022-08-11T23:27:18.685Z,18.04
2022-08-11T23:30:04.770Z,17.97
2022-08-11T23:32:50.084Z,17.85
2022-08-11T23:35:38.679Z,17.96
2022-08-11T23:38:25.989Z,18.02
2022-08-11T23:41:11.580Z,18.09
2022-08-11T23:43:56.948Z,18.24
2022-08-11T23:46:44.191Z,18.20
2022-08-11T23:49:29.700Z,18.15
2022-08-11T23:52:15.521Z,18.17
2022-08-11T23:55:00.665Z,18.09
2022-08-11T23:57:48.973Z,18.11
